Time;durP1;ratioP1;P1;durP2;ratioP2;P2;SDS_P1;SDS_P2;PMS_P1;PMS_P2;Temp;Humidity;BMP_temperature;BMP_pressure;BME280_temperature;BME280_humidity;BME280_pressure;Samples;Min_cycle;Max_cycle;Signal;HPM_P1;HPM_P2
2022/06/29 00:00:11;;;;;;;6.10;5.03;;;;;;;22.87;73.04;99547.38;5069377;28;20502;-57
2022/06/29 00:02:38;;;;;;;5.20;4.53;;;;;;;22.83;73.22;99547.50;5069983;28;20250;-55
2022/06/29 00:05:06;;;;;;;6.17;4.40;;;;;;;22.82;73.50;99549.28;5070165;28;20202;-56
2022/06/29 00:07:33;;;;;;;6.10;4.77;;;;;;;22.79;73.56;99543.28;5069903;28;20192;-56
2022/06/29 00:10:01;;;;;;;5.63;5.07;;;;;;;22.78;73.73;99549.41;5069904;28;20195;-57
2022/06/29 00:12:28;;;;;;;5.13;4.40;;;;;;;22.69;74.56;99536.63;5069859;28;20191;-57
2022/06/29 00:14:55;;;;;;;5.37;4.87;;;;;;;22.59;75.11;99536.03;5069891;28;20192;-57
2022/06/29 00:17:22;;;;;;;7.30;5.00;;;;;;;22.47;75.08;99512.84;5068764;28;20533;-57
2022/06/29 00:19:49;;;;;;;4.93;4.63;;;;;;;22.59;74.82;99530.78;5069892;28;20188;-57
2022/06/29 00:22:17;;;;;;;5.17;4.77;;;;;;;22.55;75.35;99536.19;5069875;28;20219;-57
2022/06/29 00:24:44;;;;;;;5.57;4.63;;;;;;;22.56;75.61;99530.03;5069849;28;20253;-57
2022/06/29 00:27:12;;;;;;;6.22;5.40;;;;;;;22.56;75.71;99528.28;5069507;28;20438;-57
2022/06/29 00:29:39;;;;;;;5.83;5.33;;;;;;;22.56;75.54;99532.63;5069694;28;20210;-57
2022/06/29 00:32:06;;;;;;;6.23;4.87;;;;;;;22.47;76.22;99530.34;5069892;28;20188;-57
2022/06/29 00:34:33;;;;;;;8.20;5.73;;;;;;;22.45;76.79;99524.25;5069551;28;20198;-56
2022/06/29 00:37:00;;;;;;;5.70;4.97;;;;;;;22.38;76.86;99525.38;5069533;28;20191;-56
2022/06/29 00:39:27;;;;;;;8.53;5.10;;;;;;;22.40;76.91;99516.56;5069646;28;20192;-57
2022/06/29 00:41:54;;;;;;;5.37;4.87;;;;;;;22.32;77.37;99518.56;5069556;28;20202;-56
2022/06/29 00:44:22;;;;;;;5.73;5.13;;;;;;;22.37;77.44;99519.28;5069569;28;20230;-56
2022/06/29 00:46:52;;;;;;;7.63;5.03;;;;;;;22.41;77.26;99527.91;5069567;28;20594;-56
2022/06/29 00:49:20;;;;;;;5.10;4.70;;;;;;;22.43;77.16;99518.22;5069928;28;20200;-56
2022/06/29 00:51:48;;;;;;;7.70;6.13;;;;;;;22.50;76.65;99520.59;5069810;28;20260;-56
2022/06/29 00:54:19;;;;;;;5.03;4.67;;;;;;;22.52;76.55;99517.94;5069563;28;20253;-56
2022/06/29 00:56:47;;;;;;;5.80;5.27;;;;;;;22.47;75.58;99525.09;5069445;28;20196;-56
2022/06/29 00:59:18;;;;;;;5.30;4.77;;;;;;;22.42;75.33;99519.13;5069543;28;20199;-57
2022/06/29 01:01:48;;;;;;;5.90;5.40;;;;;;;22.38;75.64;99507.91;5070028;28;20195;-56
2022/06/29 01:04:14;;;;;;;5.53;4.83;;;;;;;22.41;75.10;99507.81;5073043;28;20215;-56
2022/06/29 01:06:42;;;;;;;5.43;4.93;;;;;;;22.44;74.92;99512.09;5073562;28;20202;-56
2022/06/29 01:09:09;;;;;;;5.60;5.00;;;;;;;22.41;74.13;99520.91;5073048;28;20192;-57
2022/06/29 01:11:35;;;;;;;5.77;5.20;;;;;;;22.33;73.17;99504.59;5073342;28;20225;-56
2022/06/29 01:14:03;;;;;;;7.40;4.97;;;;;;;22.32;72.64;99498.50;5072873;28;20192;-56
2022/06/29 01:16:30;;;;;;;5.00;4.60;;;;;;;22.33;71.24;99510.66;5073068;28;20559;-56
2022/06/29 01:18:59;;;;;;;5.17;4.77;;;;;;;22.38;70.40;99517.53;5072875;28;20195;-56
2022/06/29 01:21:28;;;;;;;6.67;4.40;;;;;;;22.42;69.11;99503.41;5072713;28;20202;-56
2022/06/29 01:23:57;;;;;;;5.27;4.77;;;;;;;22.41;68.52;99514.81;5072793;28;20229;-56
2022/06/29 01:26:23;;;;;;;4.77;4.37;;;;;;;22.46;68.46;99511.16;5073131;28;20192;-56
2022/06/29 01:28:50;;;;;;;5.53;4.93;;;;;;;22.43;68.53;99505.13;5072621;28;20666;-56
2022/06/29 01:31:18;;;;;;;5.27;4.77;;;;;;;22.47;68.02;99507.59;5072533;28;20214;-56
2022/06/29 01:33:46;;;;;;;5.10;4.63;;;;;;;22.45;68.42;99505.94;5072779;28;20188;-56
2022/06/29 01:36:14;;;;;;;5.53;4.93;;;;;;;22.49;68.83;99497.09;5072934;28;20199;-56
2022/06/29 01:38:42;;;;;;;4.97;4.67;;;;;;;22.51;68.66;99490.91;5072932;28;20199;-56
2022/06/29 01:41:11;;;;;;;5.07;4.67;;;;;;;22.51;68.58;99483.03;5072563;28;20195;-56
2022/06/29 01:43:38;;;;;;;5.27;4.87;;;;;;;22.54;68.68;99484.69;5072492;28;20219;-56
2022/06/29 01:46:05;;;;;;;6.63;5.00;;;;;;;22.45;68.76;99488.47;5072491;28;20192;-56
2022/06/29 01:48:32;;;;;;;5.33;4.93;;;;;;;22.41;69.32;99476.41;5072504;28;20192;-56
2022/06/29 01:50:59;;;;;;;5.30;4.70;;;;;;;22.46;69.03;99486.72;5071460;28;20434;-56
2022/06/29 01:53:26;;;;;;;5.67;4.73;;;;;;;22.53;69.23;99491.69;5072447;28;20183;-56
2022/06/29 01:55:53;;;;;;;5.27;4.67;;;;;;;22.57;69.43;99488.09;5072160;28;20751;-57
2022/06/29 01:58:22;;;;;;;5.93;4.43;;;;;;;22.59;69.26;99495.88;5072256;28;20196;-56
2022/06/29 02:00:48;;;;;;;9.27;4.90;;;;;;;22.61;69.05;99494.94;5072289;28;20674;-57
2022/06/29 02:03:15;;;;;;;5.00;4.60;;;;;;;22.62;69.36;99487.94;5072070;28;20223;-56
2022/06/29 02:05:42;;;;;;;5.73;5.13;;;;;;;22.67;69.40;99493.91;5071979;28;20666;-56
2022/06/29 02:08:09;;;;;;;5.73;4.73;;;;;;;22.65;69.02;99480.88;5072070;28;20200;-56
2022/06/29 02:10:36;;;;;;;6.50;5.00;;;;;;;22.69;69.07;99487.69;5072046;28;20210;-56
2022/06/29 02:13:03;;;;;;;5.93;4.70;;;;;;;22.74;68.94;99491.03;5071860;28;20184;-56
2022/06/29 02:15:31;;;;;;;6.20;5.33;;;;;;;22.78;68.81;99492.66;5071317;28;20196;-56
2022/06/29 02:17:58;;;;;;;5.90;5.40;;;;;;;22.83;68.69;99485.47;5071069;28;20437;-56
2022/06/29 02:20:25;;;;;;;6.07;5.53;;;;;;;22.83;69.03;99487.25;5071854;28;20191;-56
2022/06/29 02:22:51;;;;;;;6.80;5.93;;;;;;;22.75;69.25;99482.25;5071658;28;20289;-56
2022/06/29 02:25:18;;;;;;;5.93;5.30;;;;;;;22.69;69.46;99490.31;5071648;28;20195;-57
2022/06/29 02:27:46;;;;;;;5.87;5.37;;;;;;;22.54;70.01;99482.94;5071528;28;20202;-57
2022/06/29 02:30:14;;;;;;;6.50;5.67;;;;;;;22.48;70.41;99477.91;5071570;28;20195;-57
2022/06/29 02:35:27;;;;;;;5.68;5.18;;;;;;;22.40;70.47;99484.28;5070379;28;20429;-57
2022/06/29 02:37:54;;;;;;;6.43;5.30;;;;;;;22.46;70.63;99479.72;5071565;28;20201;-57
2022/06/29 02:40:21;;;;;;;9.07;5.70;;;;;;;22.29;70.61;99468.91;5071335;28;20187;-57
2022/06/29 02:42:47;;;;;;;5.83;5.33;;;;;;;22.25;70.65;99468.16;5071137;28;20289;-57
2022/06/29 02:45:14;;;;;;;6.45;5.68;;;;;;;22.24;71.31;99478.69;5070770;28;20942;-57
2022/06/29 02:47:42;;;;;;;7.13;6.10;;;;;;;22.17;71.02;99474.53;5071358;28;20203;-57
2022/06/29 02:50:10;;;;;;;6.10;5.47;;;;;;;22.18;70.86;99468.41;5071265;28;20207;-57
2022/06/29 02:52:37;;;;;;;5.97;5.37;;;;;;;22.04;71.36;99466.22;5071104;28;20191;-57
2022/06/29 02:55:04;;;;;;;6.00;5.40;;;;;;;22.06;71.89;99466.16;5071041;28;20197;-57
2022/06/29 02:57:31;;;;;;;8.43;5.20;;;;;;;22.07;71.89;99475.72;5070939;28;20192;-57
2022/06/29 02:59:57;;;;;;;9.67;5.80;;;;;;;22.04;71.75;99479.28;5071163;28;20191;-57
2022/06/29 03:02:24;;;;;;;6.10;5.43;;;;;;;22.07;71.99;99484.44;5070174;28;20442;-57
2022/06/29 03:04:52;;;;;;;7.90;6.57;;;;;;;22.24;71.38;99484.78;5070764;28;20238;-57
2022/06/29 03:07:19;;;;;;;5.87;5.40;;;;;;;22.37;70.58;99482.63;5070779;28;20674;-57
2022/06/29 03:09:46;;;;;;;7.40;5.63;;;;;;;22.59;70.05;99481.03;5070642;28;20199;-57
2022/06/29 03:12:13;;;;;;;6.63;6.03;;;;;;;22.70;68.74;99473.72;5070600;28;20199;-57
2022/06/29 03:14:40;;;;;;;6.00;5.50;;;;;;;22.79;68.86;99476.03;5069653;28;20928;-57
2022/06/29 03:17:06;;;;;;;6.37;5.17;;;;;;;23.03;67.62;99476.09;5070547;28;20306;-57
2022/06/29 03:19:33;;;;;;;10.07;5.67;;;;;;;23.07;67.54;99478.56;5070817;28;20218;-57
2022/06/29 03:22:01;;;;;;;6.43;5.93;;;;;;;23.09;67.05;99486.38;5070912;28;20202;-57
2022/06/29 03:24:28;;;;;;;6.17;5.57;;;;;;;23.04;67.62;99483.91;5070612;28;20223;-56
2022/06/29 03:26:55;;;;;;;5.90;5.40;;;;;;;22.99;68.39;99484.97;5069659;28;20202;-56
2022/06/29 03:29:22;;;;;;;6.97;6.10;;;;;;;23.05;68.06;99467.25;5070479;28;20460;-56
2022/06/29 03:31:49;;;;;;;9.30;6.50;;;;;;;23.08;67.75;99461.06;5070372;28;20191;-56
2022/06/29 03:34:15;;;;;;;6.70;5.60;;;;;;;23.13;67.90;99462.59;5070259;28;20202;-56
2022/06/29 03:36:42;;;;;;;6.40;5.93;;;;;;;23.26;67.31;99468.28;5070161;28;20731;-56
2022/06/29 03:39:11;;;;;;;7.47;6.60;;;;;;;23.38;67.22;99457.38;5070334;28;20210;-56
2022/06/29 03:41:38;;;;;;;7.25;6.25;;;;;;;23.45;66.38;99459.75;5069960;28;20445;-57
2022/06/29 03:44:05;;;;;;;6.20;5.67;;;;;;;23.46;66.62;99463.19;5069967;28;20235;-57
2022/06/29 03:46:32;;;;;;;10.70;6.03;;;;;;;23.39;66.22;99462.59;5070221;28;20555;-57
2022/06/29 03:48:59;;;;;;;6.77;6.17;;;;;;;23.43;65.85;99456.28;5070076;28;20200;-56
2022/06/29 03:51:26;;;;;;;6.40;5.77;;;;;;;23.42;65.89;99451.13;5070078;28;20305;-56
2022/06/29 03:53:52;;;;;;;6.67;6.10;;;;;;;23.50;66.05;99456.94;5070203;28;20218;-56
2022/06/29 03:56:21;;;;;;;6.40;5.80;;;;;;;23.39;66.34;99456.47;5070036;28;20195;-57
2022/06/29 03:58:48;;;;;;;7.38;6.28;;;;;;;23.48;66.60;99457.00;5069367;28;20547;-57
2022/06/29 04:01:14;;;;;;;6.90;5.80;;;;;;;23.48;66.27;99464.88;5070248;28;20578;-57
2022/06/29 04:03:41;;;;;;;6.97;5.90;;;;;;;23.48;66.15;99461.41;5069663;28;20215;-57
2022/06/29 04:06:10;;;;;;;7.10;6.43;;;;;;;23.45;66.96;99464.13;5069850;28;20252;-57
2022/06/29 04:08:38;;;;;;;6.97;6.27;;;;;;;23.42;66.71;99465.09;5070251;28;20202;-57
2022/06/29 04:11:48;;;;;;;6.70;6.03;;;;;;;23.45;65.88;99472.00;5070000;28;20290;-57
2022/06/29 04:13:53;;;;;;;10.87;6.23;;;;;;;23.51;65.85;99465.66;5069677;28;20280;-57
2022/06/29 04:16:20;;;;;;;7.97;6.07;;;;;;;23.59;65.47;99467.09;5069806;28;20658;-57
2022/06/29 04:18:47;;;;;;;6.60;5.90;;;;;;;23.56;65.05;99458.47;5069691;28;20184;-57
2022/06/29 04:21:14;;;;;;;7.10;5.97;;;;;;;23.58;64.78;99454.88;5069870;28;20213;-57
2022/06/29 04:23:41;;;;;;;7.77;5.80;;;;;;;23.58;65.20;99451.41;5069716;28;20229;-57
2022/06/29 04:26:08;;;;;;;7.57;6.15;;;;;;;23.54;65.60;99453.28;5069152;28;20928;-57
2022/06/29 04:28:34;;;;;;;7.73;5.80;;;;;;;23.67;65.08;99454.56;5069564;28;20608;-57
2022/06/29 04:31:03;;;;;;;7.93;5.87;;;;;;;23.72;64.92;99452.59;5069494;28;20195;-57
2022/06/29 04:33:30;;;;;;;6.50;5.63;;;;;;;23.73;64.61;99442.97;5069544;28;20242;-57
2022/06/29 04:35:57;;;;;;;6.87;6.33;;;;;;;23.70;65.07;99449.19;5069191;28;20196;-57
2022/06/29 04:38:23;;;;;;;9.60;6.82;;;;;;;23.78;65.03;99452.38;5072177;28;20532;-57
2022/06/29 04:40:50;;;;;;;6.57;5.97;;;;;;;23.87;64.19;99457.25;5073370;28;20214;-57
2022/06/29 04:43:17;;;;;;;8.30;6.35;;;;;;;23.94;63.99;99464.00;5073429;28;20646;-57
2022/06/29 04:48:30;;;;;;;7.83;5.97;;;;;;;23.98;64.10;99467.38;5073402;28;20260;-57
2022/06/29 04:50:56;;;;;;;10.50;6.70;;;;;;;24.07;63.85;99469.63;5073112;28;20570;-57
2022/06/29 04:53:23;;;;;;;7.03;6.43;;;;;;;24.06;63.91;99471.38;5073005;28;20685;-58
2022/06/29 04:55:50;;;;;;;7.03;6.40;;;;;;;24.11;63.80;99471.25;5072271;28;20437;-57
2022/06/29 04:58:17;;;;;;;6.70;6.00;;;;;;;24.16;63.92;99473.69;5072838;28;20195;-57
2022/06/29 05:00:44;;;;;;;6.93;6.13;;;;;;;24.17;63.73;99473.66;5072870;28;20665;-57
2022/06/29 05:03:10;;;;;;;9.90;6.23;;;;;;;24.23;63.61;99477.81;5072840;28;20658;-57
2022/06/29 05:05:39;;;;;;;6.80;5.95;;;;;;;24.15;63.62;99480.72;5072349;28;20082;-57
2022/06/29 05:08:06;;;;;;;6.93;6.33;;;;;;;24.19;63.53;99468.31;5072692;28;20688;-57
2022/06/29 05:10:33;;;;;;;9.07;6.20;;;;;;;24.30;63.52;99471.38;5072683;28;20257;-57
2022/06/29 05:13:00;;;;;;;8.07;6.27;;;;;;;24.38;63.33;99475.41;5072816;28;20219;-57
2022/06/29 05:15:26;;;;;;;7.03;6.50;;;;;;;24.50;62.44;99469.66;5072770;28;20187;-57
2022/06/29 05:17:53;;;;;;;7.17;6.13;;;;;;;24.52;62.31;99474.84;5072754;28;20210;-57
2022/06/29 05:20:21;;;;;;;8.97;6.63;;;;;;;24.54;62.22;99478.28;5072572;28;20198;-57
2022/06/29 05:22:49;;;;;;;7.13;6.47;;;;;;;24.58;62.70;99474.63;5071757;28;20441;-57
2022/06/29 05:25:16;;;;;;;8.70;6.40;;;;;;;24.66;61.90;99480.41;5071990;28;20701;-57
2022/06/29 05:27:43;;;;;;;7.10;6.37;;;;;;;24.72;61.32;99474.06;5072804;28;20196;-57
2022/06/29 05:30:10;;;;;;;9.17;6.00;;;;;;;24.82;60.93;99476.25;5072191;28;20592;-56
2022/06/29 05:32:37;;;;;;;10.23;6.50;;;;;;;24.83;60.84;99475.31;5072288;28;20281;-57
2022/06/29 05:35:05;;;;;;;8.10;6.70;;;;;;;24.88;60.67;99477.78;5072311;28;20636;-56
2022/06/29 05:37:32;;;;;;;6.83;5.87;;;;;;;24.96;61.06;99468.66;5072251;28;20328;-56
2022/06/29 05:40:01;;;;;;;6.67;6.07;;;;;;;25.03;61.14;99463.97;5072208;28;20191;-56
2022/06/29 05:42:28;;;;;;;9.93;6.43;;;;;;;25.06;60.25;99443.66;5072254;28;20539;-56
2022/06/29 05:44:55;;;;;;;7.20;6.27;;;;;;;25.32;60.19;99478.50;5071877;28;20321;-56
2022/06/29 05:47:22;;;;;;;12.20;6.43;;;;;;;25.30;59.41;99449.59;5071785;28;20654;-56
2022/06/29 05:49:50;;;;;;;7.53;6.80;;;;;;;25.45;60.13;99480.50;5070910;28;20198;-61
2022/06/29 05:52:17;;;;;;;8.15;6.07;;;;;;;25.50;58.99;99470.66;5070881;28;20460;-56
2022/06/29 05:54:44;;;;;;;7.47;5.70;;;;;;;25.69;58.16;99473.31;5071789;28;20219;-56
2022/06/29 05:57:13;;;;;;;6.83;5.67;;;;;;;25.78;57.21;99470.28;5071978;28;20196;-57
2022/06/29 05:59:39;;;;;;;8.67;6.00;;;;;;;25.91;57.52;99481.06;5071711;28;20273;-56
2022/06/29 06:02:07;;;;;;;6.97;6.00;;;;;;;25.86;57.02;99468.13;5071610;28;20434;-56
2022/06/29 06:04:34;;;;;;;8.50;6.07;;;;;;;25.92;56.83;99467.84;5071353;28;20215;-57
2022/06/29 06:07:00;;;;;;;10.33;5.80;;;;;;;26.05;55.96;99474.25;5071509;28;20192;-57
2022/06/29 06:09:28;;;;;;;6.67;6.17;;;;;;;26.11;56.31;99481.00;5071322;28;20539;-56
2022/06/29 06:11:55;;;;;;;7.23;5.90;;;;;;;26.21;55.79;99480.53;5071788;28;20219;-57
2022/06/29 06:14:23;;;;;;;7.30;6.60;;;;;;;26.24;56.20;99480.38;5071239;28;20265;-56
2022/06/29 06:16:50;;;;;;;6.47;5.90;;;;;;;26.34;55.52;99475.53;5071138;28;20192;-57
2022/06/29 06:19:17;;;;;;;6.45;5.85;;;;;;;26.36;54.22;99469.28;5071079;28;20430;-57
2022/06/29 06:21:44;;;;;;;10.37;6.70;;;;;;;26.47;54.61;99460.84;5071595;28;20188;-57
2022/06/29 06:24:11;;;;;;;6.93;5.78;;;;;;;26.62;53.75;99473.25;5071363;28;20223;-58
2022/06/29 06:26:38;;;;;;;6.22;5.72;;;;;;;26.75;53.63;99473.50;5071089;28;20192;-57
2022/06/29 06:29:04;;;;;;;7.10;6.22;;;;;;;26.86;53.68;99481.78;5071067;28;20324;-57
2022/06/29 06:31:34;;;;;;;8.52;6.38;;;;;;;26.94;52.85;99477.81;5070256;28;20433;-57
2022/06/29 06:34:01;;;;;;;7.55;5.85;;;;;;;27.15;51.61;99472.38;5070539;28;20629;-58
2022/06/29 06:36:28;;;;;;;7.20;5.22;;;;;;;27.10;49.67;99482.31;5071179;28;20192;-57
2022/06/29 06:38:55;;;;;;;5.50;5.10;;;;;;;27.17;49.87;99483.69;5070676;28;20507;-57
2022/06/29 06:41:24;;;;;;;6.00;5.32;;;;;;;27.18;50.20;99480.13;5071021;28;20196;-58
2022/06/29 06:43:53;;;;;;;6.00;5.45;;;;;;;27.16;50.64;99476.72;5071005;28;20700;-57
2022/06/29 06:46:20;;;;;;;8.85;5.80;;;;;;;27.27;50.82;99482.28;5070898;28;20218;-57
2022/06/29 06:48:49;;;;;;;5.70;5.30;;;;;;;27.35;49.41;99478.31;5070898;28;20195;-58
2022/06/29 06:51:16;;;;;;;7.55;5.30;;;;;;;27.37;48.13;99483.50;5070660;28;20198;-58
2022/06/29 06:53:43;;;;;;;6.45;5.93;;;;;;;27.40;49.35;99481.59;5070684;28;20195;-57
2022/06/29 06:56:10;;;;;;;5.20;4.80;;;;;;;27.47;48.88;99484.75;5070382;28;20654;-57
2022/06/29 06:58:37;;;;;;;9.85;5.88;;;;;;;27.55;49.73;99479.97;5070519;28;20187;-57
2022/06/29 07:01:05;;;;;;;7.45;5.32;;;;;;;27.64;49.18;99483.88;5070079;28;20207;-57
2022/06/29 07:03:32;;;;;;;7.22;5.63;;;;;;;27.74;49.51;99485.94;5070063;28;20723;-58
2022/06/29 07:06:04;;;;;;;7.45;5.15;;;;;;;27.87;49.46;99488.78;5070414;28;20215;-57
2022/06/29 07:08:31;;;;;;;6.28;5.78;;;;;;;27.91;48.12;99479.72;5070080;28;20231;-57
2022/06/29 07:10:58;;;;;;;7.40;6.22;;;;;;;27.90;48.25;99491.25;5070735;28;20207;-57
2022/06/29 07:13:25;;;;;;;7.03;6.25;;;;;;;27.97;47.75;99487.31;5070236;28;20218;-56
2022/06/29 07:15:51;;;;;;;7.32;6.03;;;;;;;27.89;47.96;99486.88;5069554;28;20445;-56
2022/06/29 07:18:18;;;;;;;6.68;5.78;;;;;;;27.81;48.67;99482.03;5070171;28;20196;-57
2022/06/29 07:20:45;;;;;;;7.68;6.30;;;;;;;27.95;49.01;99478.63;5069778;28;20188;-57
2022/06/29 07:23:13;;;;;;;8.80;6.47;;;;;;;28.12;47.98;99483.88;5069762;28;20245;-57
2022/06/29 07:25:41;;;;;;;6.60;6.00;;;;;;;28.21;47.67;99480.72;5069899;28;20271;-56
2022/06/29 07:28:08;;;;;;;6.57;5.93;;;;;;;28.31;47.70;99478.41;5069152;28;20490;-57
2022/06/29 07:30:35;;;;;;;6.80;6.20;;;;;;;28.42;48.30;99484.81;5069809;28;20191;-56
2022/06/29 07:33:03;;;;;;;7.07;6.32;;;;;;;28.45;48.07;99483.78;5069689;28;20271;-57
2022/06/29 07:35:30;;;;;;;9.18;6.60;;;;;;;28.50;48.13;99482.56;5069702;28;20223;-57
2022/06/29 07:37:58;;;;;;;7.78;6.15;;;;;;;28.40;47.49;99451.47;5069880;28;20191;-57
2022/06/29 07:40:27;;;;;;;6.90;6.32;;;;;;;28.47;47.63;99473.97;5069927;28;20183;-56
2022/06/29 07:42:54;;;;;;;6.95;5.72;;;;;;;28.59;46.76;99481.19;5069648;28;20542;-57
2022/06/29 07:45:21;;;;;;;6.45;5.80;;;;;;;28.64;46.85;99476.53;5068441;28;20445;-57
2022/06/29 07:47:48;;;;;;;6.60;6.00;;;;;;;28.79;46.39;99480.91;5069846;28;20654;-57
2022/06/29 07:50:15;;;;;;;6.38;5.53;;;;;;;28.82;45.31;99480.75;5069767;28;20214;-57
2022/06/29 07:52:42;;;;;;;6.68;5.00;;;;;;;28.90;43.38;99475.03;5069568;28;20203;-57
2022/06/29 07:55:09;;;;;;;5.85;5.38;;;;;;;28.91;44.78;99477.56;5069688;28;20268;-57
2022/06/29 07:57:38;;;;;;;7.32;5.65;;;;;;;28.96;44.73;99474.63;5069790;28;20199;-57
2022/06/29 08:00:06;;;;;;;5.90;5.30;;;;;;;28.97;43.57;99469.28;5069153;28;20599;-57
2022/06/29 08:02:33;;;;;;;6.75;6.07;;;;;;;28.91;44.62;99471.41;5069316;28;20196;-57
2022/06/29 08:05:01;;;;;;;6.22;5.55;;;;;;;29.04;44.74;99469.75;5069476;28;20598;-57
2022/06/29 08:07:28;;;;;;;5.72;5.22;;;;;;;29.10;42.84;99466.72;5069367;28;20192;-57
2022/06/29 08:09:55;;;;;;;5.35;4.90;;;;;;;29.14;42.53;99470.91;5069395;28;20191;-57
2022/06/29 08:12:22;;;;;;;6.07;5.40;;;;;;;29.16;42.32;99471.66;5068669;28;20442;-57
2022/06/29 08:14:50;;;;;;;6.50;5.22;;;;;;;29.28;42.58;99472.75;5069413;28;20191;-57
2022/06/29 08:17:17;;;;;;;8.80;5.20;;;;;;;29.43;41.75;99483.25;5069349;28;20200;-57
2022/06/29 08:19:44;;;;;;;6.20;5.43;;;;;;;29.42;41.09;99473.59;5069437;28;20582;-57
2022/06/29 08:22:12;;;;;;;5.40;4.88;;;;;;;29.43;40.29;99467.38;5069371;28;20666;-57
2022/06/29 08:24:38;;;;;;;6.63;5.35;;;;;;;29.46;39.56;99467.19;5069204;28;20438;-57
2022/06/29 08:27:05;;;;;;;5.68;5.18;;;;;;;29.57;39.84;99469.19;5069463;28;20199;-57
2022/06/29 08:29:32;;;;;;;5.88;5.30;;;;;;;29.61;40.77;99468.06;5069319;28;20666;-57
2022/06/29 08:32:00;;;;;;;8.48;5.75;;;;;;;29.58;40.81;99474.41;5069456;28;20207;-57
2022/06/29 08:34:27;;;;;;;8.00;5.57;;;;;;;29.48;39.40;99475.88;5069445;28;20195;-57
2022/06/29 08:36:55;;;;;;;9.65;5.20;;;;;;;29.37;39.64;99480.13;5069342;28;20817;-57
2022/06/29 08:39:22;;;;;;;7.53;5.15;;;;;;;29.49;38.68;99476.75;5069003;28;20199;-57
2022/06/29 08:41:50;;;;;;;5.60;5.10;;;;;;;29.54;38.15;99479.94;5069276;28;20714;-57
2022/06/29 08:44:19;;;;;;;7.07;6.45;;;;;;;29.79;38.98;99472.19;5069158;28;20773;-57
2022/06/29 08:46:45;;;;;;;7.00;6.05;;;;;;;30.03;39.12;99483.06;5069034;28;20215;-57
2022/06/29 08:49:13;;;;;;;7.80;5.22;;;;;;;30.10;38.03;99485.25;5069070;28;20207;-57
2022/06/29 08:51:41;;;;;;;5.95;5.15;;;;;;;29.97;37.34;99451.69;5068821;28;20245;-57
2022/06/29 08:54:09;;;;;;;7.40;5.97;;;;;;;30.23;37.83;99480.00;5069004;28;20582;-57
2022/06/29 08:56:36;;;;;;;7.28;6.15;;;;;;;30.37;38.39;99485.31;5068836;28;20223;-57
2022/06/29 08:59:03;;;;;;;6.13;5.57;;;;;;;30.45;37.60;99472.38;5069097;28;20688;-57
2022/06/29 09:01:31;;;;;;;8.82;5.95;;;;;;;30.33;37.25;99484.59;5068742;28;20198;-57
2022/06/29 09:03:58;;;;;;;8.57;5.20;;;;;;;30.22;38.26;99484.44;5068967;28;20192;-57
2022/06/29 09:06:26;;;;;;;5.80;5.40;;;;;;;30.10;39.02;99484.41;5068744;28;20219;-57
2022/06/29 09:08:53;;;;;;;6.47;5.30;;;;;;;30.18;37.14;99485.63;5068787;28;20863;-58
2022/06/29 09:11:28;;;;;;;5.70;4.88;;;;;;;30.37;35.70;99496.75;5069390;28;20199;-57
2022/06/29 09:14:12;;;;;;;6.40;5.43;;;;;;;30.55;36.01;99484.09;5069041;28;20195;-57
2022/06/29 09:16:57;;;;;;;7.38;3.90;;;;;;;30.67;32.00;99490.41;5069247;28;20188;-58
2022/06/29 09:19:25;;;;;;;6.00;3.08;;;;;;;30.67;30.62;99483.28;5068823;28;20188;-58
2022/06/29 09:21:56;;;;;;;10.60;3.58;;;;;;;30.56;33.17;99443.38;5068451;28;20199;-58
2022/06/29 09:24:24;;;;;;;10.80;4.45;;;;;;;30.92;34.44;99483.41;5069896;28;20188;-57
2022/06/29 09:26:52;;;;;;;5.35;3.92;;;;;;;30.86;33.54;99486.41;5072140;28;20211;-57
2022/06/29 09:29:26;;;;;;;7.93;5.32;;;;;;;30.94;32.98;99493.91;5071637;28;20199;-57
2022/06/29 09:32:10;;;;;;;8.88;4.15;;;;;;;31.11;32.31;99492.75;5071973;28;20593;-57
2022/06/29 09:34:39;;;;;;;7.00;6.30;;;;;;;31.18;32.06;99488.75;5071724;28;20195;-57
2022/06/29 09:37:10;;;;;;;5.47;4.82;;;;;;;31.24;31.21;99490.97;5071914;28;20464;-57
2022/06/29 09:39:38;;;;;;;6.22;4.38;;;;;;;31.40;31.77;99495.13;5072060;28;20196;-57
2022/06/29 09:42:07;;;;;;;6.00;4.22;;;;;;;31.44;30.40;99490.44;5071541;28;20707;-57
2022/06/29 09:44:34;;;;;;;5.07;3.90;;;;;;;31.48;29.91;99491.97;5071551;28;20269;-57
2022/06/29 09:47:05;;;;;;;8.70;4.45;;;;;;;31.50;30.08;99490.06;5071389;28;20718;-57
2022/06/29 09:49:33;;;;;;;5.70;3.93;;;;;;;31.58;29.86;99492.19;5071519;28;20532;-57
2022/06/29 09:52:02;;;;;;;4.60;4.13;;;;;;;31.51;30.43;99481.13;5071816;28;20456;-57
2022/06/29 09:54:32;;;;;;;6.18;4.32;;;;;;;31.60;30.43;99480.47;5071790;28;20192;-57
2022/06/29 09:57:01;;;;;;;4.35;4.03;;;;;;;31.65;31.67;99480.16;5071449;28;20678;-57
2022/06/29 10:05:04;;;;;;;6.43;3.90;;;;;;;31.65;32.36;99488.97;5071188;28;20256;-57
2022/06/29 10:07:31;;;;;;;6.97;4.55;;;;;;;31.66;31.76;99474.75;5070115;28;20524;-58
2022/06/29 10:10:01;;;;;;;4.60;4.10;;;;;;;31.80;30.59;99479.94;5071080;28;20226;-57
2022/06/29 10:15:41;;;;;;;4.80;4.40;;;;;;;31.30;32.40;99485.25;5064429;28;20198;-57
2022/06/29 10:18:24;;;;;;;6.88;4.50;;;;;;;30.97;31.72;99472.47;5070973;28;20195;-57
2022/06/29 10:20:53;;;;;;;4.40;4.00;;;;;;;31.12;31.91;99468.78;5071150;28;20195;-57
2022/06/29 10:23:44;;;;;;;6.63;4.40;;;;;;;30.96;32.50;99468.09;5071079;28;20669;-57
2022/06/29 10:26:40;;;;;;;8.38;4.72;;;;;;;31.19;33.04;99478.00;5070801;28;20211;-57
2022/06/29 10:29:35;;;;;;;7.57;6.07;;;;;;;31.50;33.16;99471.47;5070624;28;20199;-58
2022/06/29 10:32:23;;;;;;;6.00;4.20;;;;;;;31.49;31.75;99469.75;5070593;28;20241;-57
2022/06/29 10:35:08;;;;;;;7.97;4.80;;;;;;;31.60;32.03;99458.38;5069804;28;20438;-57
2022/06/29 10:37:48;;;;;;;6.03;4.45;;;;;;;31.72;32.66;99457.53;5070654;28;20217;-57
2022/06/29 10:40:20;;;;;;;5.40;4.90;;;;;;;31.74;33.59;99456.44;5070800;28;20272;-57
2022/06/29 10:45:35;;;;;;;5.90;5.22;;;;;;;31.64;33.93;99452.75;5070328;28;20252;-57
2022/06/29 10:48:21;;;;;;;5.32;4.80;;;;;;;31.87;33.25;99449.28;5070538;28;20199;-57
2022/06/29 10:50:48;;;;;;;6.45;5.78;;;;;;;32.01;32.85;99454.50;5070211;28;20268;-57
2022/06/29 10:53:20;;;;;;;11.18;10.02;;;;;;;32.26;33.49;99455.38;5070407;28;20282;-57
2022/06/29 10:55:49;;;;;;;4.88;4.30;;;;;;;32.37;31.14;99453.63;5070382;28;20689;-57
2022/06/29 10:58:18;;;;;;;5.60;4.45;;;;;;;32.50;31.29;99450.88;5070544;28;20200;-67
2022/06/29 11:00:46;;;;;;;5.30;4.50;;;;;;;32.48;30.92;99451.00;5070605;28;20203;-68
2022/06/29 11:03:16;;;;;;;7.78;5.88;;;;;;;32.58;30.95;99448.53;5070155;28;20445;-68
2022/06/29 11:14:01;;;;;;;4.40;4.00;;;;;;;31.97;30.78;99453.00;5070215;28;20186;-68
2022/06/29 11:16:30;;;;;;;4.82;4.43;;;;;;;31.95;30.44;99446.06;5070302;28;20268;-68
2022/06/29 11:18:57;;;;;;;5.22;4.57;;;;;;;32.00;31.10;99450.13;5070313;28;20195;-67
2022/06/29 11:21:25;;;;;;;6.20;4.85;;;;;;;32.03;31.09;99446.41;5070071;28;20214;-68
2022/06/29 11:24:02;;;;;;;8.13;4.55;;;;;;;32.07;32.12;99427.47;5070703;28;20188;-68
2022/06/29 11:26:30;;;;;;;4.95;4.55;;;;;;;32.27;31.36;99444.63;5070054;28;20306;-68
2022/06/29 11:28:58;;;;;;;8.25;4.70;;;;;;;32.49;31.26;99434.09;5070109;28;20188;-68
2022/06/29 11:31:27;;;;;;;7.05;4.60;;;;;;;32.75;30.27;99441.94;5069356;28;20434;-67
2022/06/29 11:33:56;;;;;;;8.40;4.65;;;;;;;32.94;30.66;99439.59;5070506;28;20191;-68
2022/06/29 11:36:25;;;;;;;7.18;6.30;;;;;;;33.07;30.41;99440.41;5069817;28;20176;-67
2022/06/29 11:38:53;;;;;;;6.97;4.78;;;;;;;32.80;29.87;99439.81;5069912;28;20191;-68
2022/06/29 11:41:22;;;;;;;6.88;4.97;;;;;;;32.96;30.19;99435.88;5069857;28;20191;-67
2022/06/29 11:43:59;;;;;;;8.50;5.13;;;;;;;33.21;30.47;99433.00;5069663;28;20929;-67
2022/06/29 11:46:28;;;;;;;5.50;3.97;;;;;;;33.34;29.18;99424.94;5068799;28;20223;-67
2022/06/29 11:51:55;;;;;;;7.78;6.53;;;;;;;33.24;29.45;99427.44;5069885;28;20194;-67
2022/06/29 11:54:36;;;;;;;6.90;4.47;;;;;;;33.32;29.23;99423.38;5069666;28;20281;-67
2022/06/29 11:57:05;;;;;;;6.95;4.60;;;;;;;33.45;28.61;99419.59;5069752;28;20274;-67
2022/06/29 11:59:33;;;;;;;5.28;4.32;;;;;;;33.21;28.24;99417.03;5069719;28;20290;-67
2022/06/29 12:02:01;;;;;;;4.93;4.40;;;;;;;33.31;28.91;99411.84;5070113;28;20187;-67
2022/06/29 12:04:30;;;;;;;7.18;6.57;;;;;;;33.31;29.32;99390.53;5069951;28;20191;-67
2022/06/29 12:07:08;;;;;;;4.65;4.20;;;;;;;33.37;28.58;99410.53;5069275;28;20702;-67